Terminal Aerodrome Forecast
Issued by NWS

Home | Current Version | Previous Version | Text Only | Print | Product List | Glossary On
Versions: 1 2 3 4 5 6 7 8 9 10 11 12 13 14 15 16 17
000
FTUS42 KKEY 162331
TAFMTH
TAF
KMTH 162331Z 1700/1724 06011G17KT P6SM FEW025 SCT250
     FM170900 08012G19KT P6SM FEW020 SCT040 SCT250=

USA.gov is the U.S. government's official web portal to all federal, state and local government web resources and services.